Time;durP1;ratioP1;P1;durP2;ratioP2;P2;SDS_P1;SDS_P2;PMS_P1;PMS_P2;Temp;Humidity;BMP_temperature;BMP_pressure;BME280_temperature;BME280_humidity;BME280_pressure;Samples;Min_cycle;Max_cycle;Signal;HPM_P1;HPM_P2
2022/01/10 00:00:55;;;;;;;214.30;103.00;;;;;;;-4.33;58.84;98288.96;106017;1274;111347;-73
2022/01/10 00:03:24;;;;;;;240.00;106.00;;;;;;;-4.38;58.81;98289.07;106155;1274;96569;-72
2022/01/10 00:05:52;;;;;;;227.00;103.00;;;;;;;-4.39;58.80;98295.69;106100;1274;106405;-72
2022/01/10 00:08:20;;;;;;;213.50;98.40;;;;;;;-4.40;58.89;98297.97;106156;1274;97879;-73
2022/01/10 00:10:51;;;;;;;202.40;96.20;;;;;;;-4.43;58.82;98300.64;106140;1272;95275;-70
2022/01/10 00:13:19;;;;;;;187.70;83.50;;;;;;;-4.47;58.77;98307.13;106064;1274;111271;-71
2022/01/10 00:15:47;;;;;;;154.30;70.20;;;;;;;-4.50;59.03;98308.23;106203;1274;95872;-70
2022/01/10 00:18:15;;;;;;;158.80;77.20;;;;;;;-4.51;59.05;98312.79;106075;1274;107698;-73
2022/01/10 00:20:43;;;;;;;189.70;85.10;;;;;;;-4.53;58.98;98315.77;106001;1274;97675;-72
2022/01/10 00:23:14;;;;;;;187.70;83.50;;;;;;;-4.54;59.12;98318.21;106119;1274;95254;-72
2022/01/10 00:25:42;;;;;;;136.40;64.70;;;;;;;-4.56;58.96;98321.02;106162;1273;110982;-70
2022/01/10 00:28:10;;;;;;;164.60;71.70;;;;;;;-4.62;58.91;98320.98;106119;1274;97889;-69
2022/01/10 00:30:38;;;;;;;200.40;87.30;;;;;;;-4.65;58.99;98322.77;106138;1273;107721;-67
2022/01/10 00:33:06;;;;;;;212.70;93.50;;;;;;;-4.66;58.94;98326.44;106084;1274;95273;-68
2022/01/10 00:35:34;;;;;;;220.10;101.10;;;;;;;-4.69;59.00;98328.57;106114;1274;96010;-72
2022/01/10 00:38:01;;;;;;;228.30;100.80;;;;;;;-4.71;59.12;98331.91;106098;1272;111421;-70
2022/01/10 00:40:29;;;;;;;223.80;101.50;;;;;;;-4.70;59.07;98339.48;106225;1274;97865;-68
2022/01/10 00:42:58;;;;;;;229.40;102.10;;;;;;;-4.70;59.20;98346.42;106175;1274;107758;-70
2022/01/10 00:45:29;;;;;;;230.90;103.10;;;;;;;-4.70;59.19;98350.57;106142;1274;97836;-73
2022/01/10 00:48:01;;;;;;;265.40;122.20;;;;;;;-4.70;59.21;98350.41;106183;1274;97867;-72
2022/01/10 00:50:29;;;;;;;266.10;118.80;;;;;;;-4.72;59.18;98350.97;106096;1274;111778;-71
2022/01/10 00:52:57;;;;;;;283.90;126.60;;;;;;;-4.74;59.20;98354.30;106174;1273;97846;-71
2022/01/10 00:55:25;;;;;;;292.70;128.30;;;;;;;-4.75;59.37;98352.95;106122;1274;107894;-71
2022/01/10 00:57:53;;;;;;;313.60;134.90;;;;;;;-4.76;59.29;98356.23;106197;1274;97902;-69
2022/01/10 01:00:22;;;;;;;305.50;133.30;;;;;;;-4.78;59.37;98358.36;106227;1271;97868;-70
2022/01/10 01:02:50;;;;;;;307.60;136.20;;;;;;;-4.81;59.42;98360.32;106216;1274;111397;-71
2022/01/10 01:05:22;;;;;;;301.40;137.40;;;;;;;-4.82;59.38;98365.38;106219;1274;95224;-71
2022/01/10 01:07:50;;;;;;;315.70;136.80;;;;;;;-4.83;59.40;98368.84;106167;1274;107678;-72
2022/01/10 01:24:07;;;;;;;286.60;131.60;;;;;;;-4.91;59.57;98369.36;106134;1273;98916;-72
2022/01/10 01:26:46;;;;;;;285.70;128.50;;;;;;;-4.92;59.54;98373.20;106215;1274;97960;-70
2022/01/10 01:29:21;;;;;;;283.80;129.60;;;;;;;-4.95;59.55;98373.95;106136;1274;109434;-70
2022/01/10 01:31:52;;;;;;;275.00;123.90;;;;;;;-4.97;59.64;98375.70;106146;1274;97887;-68
2022/01/10 01:34:24;;;;;;;263.70;117.10;;;;;;;-4.98;59.59;98373.83;106079;1274;107445;-71
2022/01/10 01:36:57;;;;;;;259.30;117.80;;;;;;;-5.00;59.68;98377.67;106157;1274;97970;-67
2022/01/10 01:39:31;;;;;;;243.60;109.70;;;;;;;-5.03;59.72;98383.95;106168;1274;97847;-70
2022/01/10 01:42:28;;;;;;;233.70;102.90;;;;;;;-5.03;59.58;98389.66;106195;1273;111395;-70
2022/01/10 01:44:53;;;;;;;239.70;111.00;;;;;;;-5.03;59.60;98395.55;106145;1274;97708;-69
2022/01/10 01:47:21;;;;;;;251.10;111.80;;;;;;;-5.04;59.77;98396.43;106158;1274;107846;-72
2022/01/10 01:49:49;;;;;;;250.60;115.20;;;;;;;-5.05;59.62;98401.12;106169;1274;97852;-71
2022/01/10 01:52:22;;;;;;;235.30;105.70;;;;;;;-5.05;59.70;98406.65;106128;1273;98150;-72
2022/01/10 01:54:51;;;;;;;246.20;110.40;;;;;;;-5.05;59.71;98407.35;106110;1274;111388;-71
2022/01/10 01:57:22;;;;;;;234.70;108.80;;;;;;;-5.05;59.74;98409.25;106231;1274;97860;-72
2022/01/10 01:59:54;;;;;;;229.00;104.50;;;;;;;-5.06;59.74;98410.30;106233;1273;107750;-70
2022/01/10 02:02:22;;;;;;;217.70;98.10;;;;;;;-5.08;59.79;98411.21;106243;1274;97959;-72
2022/01/10 02:04:54;;;;;;;201.70;93.40;;;;;;;-5.15;59.68;98408.41;106260;1273;97892;-72
2022/01/10 02:07:21;;;;;;;206.20;95.10;;;;;;;-5.18;59.72;98409.15;106250;1274;111456;-72
2022/01/10 02:09:49;;;;;;;216.90;98.40;;;;;;;-5.19;59.70;98411.09;106215;1274;97831;-71
2022/01/10 02:12:17;;;;;;;214.80;98.30;;;;;;;-5.21;59.73;98409.74;106013;1274;107765;-71
2022/01/10 02:14:47;;;;;;;207.90;96.70;;;;;;;-5.23;59.89;98415.46;106124;1274;98021;-71
2022/01/10 02:17:22;;;;;;;215.70;97.50;;;;;;;-5.24;59.90;98415.64;106169;1273;97881;-73
2022/01/10 02:19:59;;;;;;;212.60;98.50;;;;;;;-5.22;59.85;98417.53;106178;1274;111485;-71
2022/01/10 02:22:31;;;;;;;217.10;99.80;;;;;;;-5.22;59.85;98424.10;106139;1274;95235;-72
2022/01/10 02:24:58;;;;;;;217.80;102.00;;;;;;;-5.23;59.77;98428.43;106108;1274;107478;-72
2022/01/10 02:27:26;;;;;;;214.50;95.60;;;;;;;-5.26;59.83;98431.07;106228;1274;95760;-72
2022/01/10 02:29:54;;;;;;;210.40;97.40;;;;;;;-5.26;59.87;98431.78;106050;1274;97979;-72
2022/01/10 02:32:22;;;;;;;228.40;104.00;;;;;;;-5.27;59.71;98431.79;106214;1273;111355;-72
2022/01/10 02:34:50;;;;;;;226.60;106.80;;;;;;;-5.27;59.94;98428.68;106112;1273;96583;-71
2022/01/10 02:37:31;;;;;;;226.70;106.20;;;;;;;-5.26;59.85;98430.92;106132;1274;107718;-71
2022/01/10 02:40:02;;;;;;;220.10;99.70;;;;;;;-5.27;59.81;98432.48;106109;1273;97966;-70
2022/01/10 02:42:37;;;;;;;225.20;99.90;;;;;;;-5.29;59.89;98430.94;106110;1273;95307;-71
2022/01/10 02:45:07;;;;;;;217.30;99.40;;;;;;;-5.31;59.97;98434.12;106127;1274;111350;-68
2022/01/10 02:47:40;;;;;;;220.70;99.70;;;;;;;-5.33;59.77;98437.10;106120;1274;95315;-70
2022/01/10 02:50:10;;;;;;;230.10;105.40;;;;;;;-5.36;59.88;98438.70;106139;1274;107636;-70
2022/01/10 02:52:43;;;;;;;217.60;101.30;;;;;;;-5.38;59.83;98442.89;106100;1273;97822;-72
2022/01/10 02:55:15;;;;;;;231.90;103.40;;;;;;;-5.39;60.06;98456.04;106201;1274;97949;-71
2022/01/10 02:57:43;;;;;;;244.10;113.90;;;;;;;-5.39;59.97;98462.60;106109;1274;111242;-72
2022/01/10 03:00:21;;;;;;;225.90;102.30;;;;;;;-5.39;60.09;98463.11;106028;1274;97860;-72
2022/01/10 03:02:54;;;;;;;215.50;101.20;;;;;;;-5.40;60.05;98466.41;106040;1274;107101;-71
2022/01/10 03:05:27;;;;;;;194.40;93.10;;;;;;;-5.43;60.06;98471.30;106097;1274;97924;-73
2022/01/10 03:07:56;;;;;;;187.50;87.10;;;;;;;-5.44;60.00;98472.88;106107;1274;97947;-73
2022/01/10 03:10:26;;;;;;;161.30;80.60;;;;;;;-5.44;59.89;98475.82;106124;1274;111425;-71
2022/01/10 03:12:54;;;;;;;165.80;76.30;;;;;;;-5.44;60.04;98477.39;106159;1274;97717;-73
2022/01/10 03:15:21;;;;;;;155.60;72.30;;;;;;;-5.51;59.97;98483.38;106036;1274;108784;-72
2022/01/10 03:17:49;;;;;;;145.80;67.80;;;;;;;-5.55;59.65;98483.29;106125;1273;96525;-73
2022/01/10 03:20:23;;;;;;;156.50;73.10;;;;;;;-5.63;59.93;98484.26;106123;1274;97889;-74
2022/01/10 03:22:55;;;;;;;;;;;;;;;-5.66;59.83;98484.66;106172;1274;111375;-72
2022/01/10 03:25:23;;;;;;;153.80;71.70;;;;;;;-5.66;60.03;98482.58;106123;1273;97898;-72
2022/01/10 03:27:51;;;;;;;157.30;73.10;;;;;;;-5.63;60.28;98487.20;106149;1274;107479;-71
2022/01/10 03:30:19;;;;;;;148.30;69.90;;;;;;;-5.59;60.26;98489.04;106093;1274;121191;-72
2022/01/10 03:32:51;;;;;;;151.90;68.30;;;;;;;-5.57;60.14;98495.92;106215;1274;98161;-69
2022/01/10 03:35:23;;;;;;;151.80;70.20;;;;;;;-5.58;60.20;98502.15;106117;1274;111294;-70
2022/01/10 03:37:51;;;;;;;139.00;65.20;;;;;;;-5.60;60.17;98509.95;106149;1274;97905;-70
2022/01/10 03:40:22;;;;;;;128.80;58.70;;;;;;;-5.61;59.95;98521.72;106152;1273;107729;-70
2022/01/10 03:42:50;;;;;;;107.20;48.00;;;;;;;-5.64;60.10;98521.08;106047;1274;95295;-72
2022/01/10 03:45:18;;;;;;;108.80;47.40;;;;;;;-5.65;60.30;98529.90;106177;1274;97942;-70
2022/01/10 03:47:46;;;;;;;115.30;51.30;;;;;;;-5.64;60.41;98540.08;106123;1274;111470;-71
2022/01/10 03:50:14;;;;;;;109.90;47.90;;;;;;;-5.60;60.43;98539.33;106147;1273;97935;-72
2022/01/10 03:52:42;;;;;;;104.20;45.00;;;;;;;-5.55;60.51;98543.92;106089;1274;107749;-70
2022/01/10 03:55:13;;;;;;;102.70;45.10;;;;;;;-5.50;60.53;98549.02;106118;1274;95280;-71
2022/01/10 03:57:41;;;;;;;100.70;46.40;;;;;;;-5.46;60.69;98550.67;106149;1274;97969;-71
2022/01/10 04:00:10;;;;;;;93.00;40.30;;;;;;;-5.42;60.65;98555.28;106126;1274;111311;-72
2022/01/10 04:02:46;;;;;;;82.80;37.70;;;;;;;-5.36;60.93;98558.48;106152;1272;97956;-70
2022/01/10 04:05:21;;;;;;;94.40;40.50;;;;;;;-5.32;60.97;98561.70;106114;1274;107708;-73
2022/01/10 04:07:49;;;;;;;91.10;36.30;;;;;;;-5.26;61.10;98569.54;106142;1274;97880;-71
2022/01/10 04:10:17;;;;;;;71.10;31.20;;;;;;;-5.19;61.15;98572.02;106170;1274;97831;-72
2022/01/10 04:12:45;;;;;;;74.90;30.90;;;;;;;-5.14;61.03;98570.57;106158;1274;111383;-69
2022/01/10 04:15:13;;;;;;;69.60;30.90;;;;;;;-5.12;60.91;98578.82;106121;1274;97845;-72
2022/01/10 04:17:40;;;;;;;63.50;28.10;;;;;;;-5.06;61.14;98581.83;106130;1272;107538;-70
2022/01/10 04:20:11;;;;;;;62.40;27.80;;;;;;;-5.00;61.22;98586.23;106165;1274;98588;-70
2022/01/10 04:22:39;;;;;;;58.30;26.20;;;;;;;-4.99;61.12;98592.09;106302;1273;97949;-70
2022/01/10 04:25:07;;;;;;;53.40;24.30;;;;;;;-5.00;61.34;98598.86;106148;1274;111420;-70
2022/01/10 04:27:35;;;;;;;49.30;22.40;;;;;;;-5.06;61.20;98606.38;106143;1274;95206;-70
2022/01/10 04:30:04;;;;;;;49.60;21.10;;;;;;;-5.06;61.09;98610.19;106165;1274;106697;-71
2022/01/10 04:32:32;;;;;;;44.50;19.50;;;;;;;-5.05;61.36;98615.02;106156;1274;97893;-71
2022/01/10 04:35:08;;;;;;;50.10;22.60;;;;;;;-5.04;61.27;98615.70;106140;1274;97911;-73
2022/01/10 04:37:37;;;;;;;45.70;20.60;;;;;;;-5.00;61.29;98614.75;106191;1273;111480;-73
2022/01/10 04:40:08;;;;;;;48.00;19.90;;;;;;;-4.98;61.34;98616.45;106172;1274;97885;-71
2022/01/10 04:42:37;;;;;;;44.10;19.30;;;;;;;-4.98;61.31;98619.05;106010;1274;107662;-72
2022/01/10 04:45:05;;;;;;;52.00;22.40;;;;;;;-5.00;61.27;98623.91;106028;1274;97938;-73
2022/01/10 04:47:33;;;;;;;54.10;23.10;;;;;;;-4.97;61.45;98628.38;107928;1273;95940;-71
2022/01/10 04:52:30;;;;;;;47.70;21.30;;;;;;;-4.90;61.41;98632.94;107967;1273;96146;-71
2022/01/10 04:55:00;;;;;;;48.50;21.00;;;;;;;-4.86;61.49;98637.52;107426;1274;107698;-72
2022/01/10 04:57:28;;;;;;;51.00;22.40;;;;;;;-4.78;61.63;98642.77;106037;1274;97880;-72
2022/01/10 04:59:55;;;;;;;50.80;23.00;;;;;;;-4.70;61.60;98648.33;106173;1274;97883;-72
2022/01/10 05:02:27;;;;;;;51.50;23.50;;;;;;;-4.66;61.69;98650.14;106176;1274;109572;-71
2022/01/10 05:04:55;;;;;;;55.10;24.00;;;;;;;-4.60;61.80;98652.30;106219;1274;97851;-71
2022/01/10 05:07:23;;;;;;;55.90;23.70;;;;;;;-4.54;61.80;98652.02;106141;1274;107659;-71
2022/01/10 05:09:50;;;;;;;50.40;22.70;;;;;;;-4.47;61.90;98653.81;106087;1274;97933;-71
2022/01/10 05:12:20;;;;;;;56.80;24.50;;;;;;;-4.41;61.89;98660.61;106047;1275;97960;-70
2022/01/10 05:14:48;;;;;;;51.50;23.40;;;;;;;-4.35;61.94;98665.17;106111;1274;110670;-72
2022/01/10 05:17:18;;;;;;;55.20;24.20;;;;;;;-4.31;62.06;98667.70;106137;1273;97955;-71
2022/01/10 05:19:48;;;;;;;52.70;24.00;;;;;;;-4.26;62.03;98673.15;106138;1274;107674;-71
2022/01/10 05:22:17;;;;;;;55.90;23.70;;;;;;;-4.24;62.04;98681.23;106082;1277;97896;-71
2022/01/10 05:24:45;;;;;;;55.60;25.50;;;;;;;-4.21;62.07;98685.52;106181;1274;97873;-71
2022/01/10 05:27:13;;;;;;;56.80;25.70;;;;;;;-4.19;62.17;98688.09;106191;1274;111442;-70
2022/01/10 05:29:40;;;;;;;57.00;24.80;;;;;;;-4.16;61.99;98691.33;106206;1274;95183;-73
2022/01/10 05:32:12;;;;;;;59.10;25.10;;;;;;;-4.17;62.10;98696.02;106166;1274;107829;-73
2022/01/10 05:34:40;;;;;;;57.60;25.50;;;;;;;-4.15;62.08;98698.06;106327;1274;95573;-75
2022/01/10 05:37:08;;;;;;;60.80;26.40;;;;;;;-4.12;62.30;98703.89;106227;1271;97982;-73
2022/01/10 05:39:36;;;;;;;62.20;28.60;;;;;;;-4.09;62.28;98704.34;106224;1274;111285;-72
2022/01/10 05:42:04;;;;;;;60.40;26.60;;;;;;;-4.05;62.36;98706.52;106236;1274;97926;-73
2022/01/10 05:44:32;;;;;;;62.70;29.00;;;;;;;-4.00;62.47;98709.04;106197;1273;105691;-73
2022/01/10 05:47:04;;;;;;;61.10;27.30;;;;;;;-3.98;62.49;98716.09;106077;1274;97846;-73
2022/01/10 05:49:34;;;;;;;58.60;25.60;;;;;;;-3.95;62.61;98721.76;106202;1274;98077;-73
2022/01/10 05:52:06;;;;;;;;;;;;;;;-3.92;62.45;98720.31;106201;1274;111308;-72
2022/01/10 05:54:34;;;;;;;53.30;21.30;;;;;;;-3.94;62.30;98721.91;106063;1274;97936;-74
2022/01/10 05:57:03;;;;;;;57.20;24.00;;;;;;;-4.03;62.34;98720.86;106114;1274;107742;-73
2022/01/10 05:59:34;;;;;;;57.70;24.10;;;;;;;-4.05;62.58;98725.73;106150;1274;97974;-74
2022/01/10 06:02:03;;;;;;;51.50;21.80;;;;;;;-4.00;62.68;98728.08;106203;1274;97964;-74
2022/01/10 06:04:34;;;;;;;53.10;23.40;;;;;;;-3.99;62.30;98729.79;106183;1274;111267;-73
2022/01/10 06:07:02;;;;;;;56.70;23.40;;;;;;;-4.05;62.36;98732.83;106229;1274;97975;-75
2022/01/10 06:09:30;;;;;;;52.00;22.20;;;;;;;-4.10;62.41;98738.66;106072;1274;108832;-73
2022/01/10 06:11:58;;;;;;;61.20;24.90;;;;;;;-4.15;62.29;98740.83;106079;1274;97822;-73
2022/01/10 06:14:26;;;;;;;57.10;24.00;;;;;;;-4.13;62.72;98744.60;106166;1274;97863;-72
2022/01/10 06:16:53;;;;;;;52.80;22.60;;;;;;;-4.06;62.84;98752.09;106079;1274;112669;-73
2022/01/10 06:19:21;;;;;;;47.40;19.80;;;;;;;-4.00;62.65;98754.58;105998;1274;98374;-74
2022/01/10 06:21:49;;;;;;;52.00;23.40;;;;;;;-4.01;62.54;98757.02;106114;1274;107695;-74
2022/01/10 06:24:17;;;;;;;49.20;23.50;;;;;;;-4.04;62.84;98766.08;106110;1272;98014;-74
2022/01/10 06:26:49;;;;;;;54.00;23.00;;;;;;;-4.00;62.66;98771.56;106082;1273;96220;-74
2022/01/10 06:29:17;;;;;;;49.70;22.70;;;;;;;-3.99;62.93;98778.12;106134;1274;111363;-73
2022/01/10 06:31:44;;;;;;;54.00;22.60;;;;;;;-3.93;63.07;98782.00;106112;1274;95950;-74
2022/01/10 06:34:12;;;;;;;55.70;23.30;;;;;;;-3.86;63.02;98783.60;106106;1274;107600;-72
2022/01/10 06:36:40;;;;;;;53.10;22.60;;;;;;;-3.83;63.34;98786.15;106059;1274;95298;-73
2022/01/10 06:39:15;;;;;;;53.50;24.60;;;;;;;-3.77;63.21;98790.72;106120;1274;95213;-73
2022/01/10 06:41:43;;;;;;;58.80;24.40;;;;;;;-3.69;63.38;98795.94;106088;1274;111491;-74
2022/01/10 06:44:11;;;;;;;61.00;27.60;;;;;;;-3.63;63.56;98802.58;106238;1274;97857;-74
2022/01/10 06:46:39;;;;;;;62.50;26.30;;;;;;;-3.57;63.51;98805.42;106027;1274;108812;-74
2022/01/10 06:49:07;;;;;;;59.10;24.80;;;;;;;-3.52;63.47;98806.52;106219;1273;98071;-74
2022/01/10 06:51:35;;;;;;;59.10;23.10;;;;;;;-3.46;63.55;98809.70;106171;1274;95995;-74
2022/01/10 06:54:06;;;;;;;56.50;23.60;;;;;;;-3.40;63.50;98812.88;106121;1274;112037;-74
2022/01/10 06:56:34;;;;;;;54.70;21.10;;;;;;;-3.35;63.74;98822.66;106038;1277;97854;-74
2022/01/10 06:59:04;;;;;;;55.20;20.60;;;;;;;-3.31;63.55;98826.91;106167;1274;105398;-75
2022/01/10 07:01:36;;;;;;;54.90;23.20;;;;;;;-3.26;63.69;98828.71;106036;1274;97873;-74
2022/01/10 07:04:10;;;;;;;67.40;25.90;;;;;;;-3.21;63.47;98834.00;106117;1274;97949;-74
2022/01/10 07:06:42;;;;;;;60.20;25.00;;;;;;;-3.17;63.62;98833.39;106108;1274;111352;-74
2022/01/10 07:09:11;;;;;;;59.40;26.80;;;;;;;-3.13;63.76;98838.35;106186;1274;95809;-74
2022/01/10 07:11:39;;;;;;;67.00;27.50;;;;;;;-3.10;63.46;98844.55;106213;1274;107694;-74
2022/01/10 07:14:11;;;;;;;62.00;26.80;;;;;;;-3.08;63.63;98850.56;106165;1274;97975;-73
2022/01/10 07:16:43;;;;;;;59.00;23.70;;;;;;;-3.07;63.77;98852.11;106122;1274;97966;-76
2022/01/10 07:19:11;;;;;;;58.60;25.70;;;;;;;-3.07;63.50;98859.74;106134;1274;112237;-73
2022/01/10 07:21:40;;;;;;;58.30;26.40;;;;;;;-3.07;63.53;98865.83;106157;1274;97661;-74
2022/01/10 07:24:13;;;;;;;57.50;25.80;;;;;;;-3.07;63.53;98868.24;106132;1273;106851;-75
2022/01/10 07:26:44;;;;;;;69.30;31.10;;;;;;;-3.04;63.63;98875.13;106012;1275;97856;-75
2022/01/10 07:29:12;;;;;;;84.70;34.10;;;;;;;-3.01;63.65;98880.60;106149;1274;97907;-74
2022/01/10 07:31:44;;;;;;;79.30;35.60;;;;;;;-2.97;63.85;98880.71;106146;1274;111402;-75
2022/01/10 07:34:15;;;;;;;80.70;33.60;;;;;;;-2.95;63.82;98879.10;106093;1274;97880;-76
2022/01/10 07:36:45;;;;;;;73.80;32.40;;;;;;;-2.93;63.68;98882.00;106076;1274;107810;-76
2022/01/10 07:39:16;;;;;;;76.50;29.20;;;;;;;-2.91;63.56;98879.03;106255;1274;97962;-76
2022/01/10 07:41:45;;;;;;;65.00;29.00;;;;;;;-2.90;63.81;98884.73;106218;1274;95288;-76
2022/01/10 07:44:13;;;;;;;69.90;32.00;;;;;;;-2.88;63.78;98889.72;106292;1274;109321;-75
2022/01/10 07:46:42;;;;;;;72.10;32.80;;;;;;;-2.86;63.59;98894.00;106206;1274;97898;-74
2022/01/10 07:49:11;;;;;;;75.60;33.70;;;;;;;-2.86;63.75;98896.60;106077;1274;107770;-75
2022/01/10 07:51:39;;;;;;;82.20;37.00;;;;;;;-2.84;63.82;98898.65;106232;1274;97979;-73
2022/01/10 07:54:11;;;;;;;74.00;33.20;;;;;;;-2.82;63.71;98899.12;106279;1274;97901;-75
2022/01/10 07:56:39;;;;;;;73.10;32.00;;;;;;;-2.80;64.17;98900.14;106137;1274;111486;-75
2022/01/10 07:59:07;;;;;;;75.80;33.50;;;;;;;-2.78;63.84;98903.91;106152;1274;97906;-75
2022/01/10 08:01:35;;;;;;;77.30;32.20;;;;;;;-2.77;64.04;98907.52;106124;1274;107723;-74
2022/01/10 08:04:04;;;;;;;76.20;33.40;;;;;;;-2.75;64.17;98911.48;106101;1274;97851;-74
2022/01/10 08:06:32;;;;;;;77.90;33.80;;;;;;;-2.74;64.06;98910.42;106100;1274;95463;-73
2022/01/10 08:09:00;;;;;;;79.40;39.00;;;;;;;-2.73;64.03;98912.48;106116;1274;110415;-74
2022/01/10 08:11:28;;;;;;;76.40;35.40;;;;;;;-2.71;63.89;98912.95;106272;1273;95168;-73
2022/01/10 08:13:56;;;;;;;73.30;32.70;;;;;;;-2.69;64.07;98912.92;106179;1273;107717;-74
2022/01/10 08:16:27;;;;;;;83.20;37.60;;;;;;;-2.67;64.21;98915.85;106060;1274;97953;-74
2022/01/10 08:18:55;;;;;;;75.60;34.80;;;;;;;-2.65;64.02;98918.20;106060;1274;95261;-74
2022/01/10 08:21:23;;;;;;;80.90;39.20;;;;;;;-2.63;64.10;98919.73;106047;1274;111392;-74
2022/01/10 08:23:51;;;;;;;84.20;38.00;;;;;;;-2.61;64.19;98926.63;106108;1274;97866;-74
2022/01/10 08:26:19;;;;;;;85.50;38.60;;;;;;;-2.59;64.16;98926.44;106094;1274;106718;-74
2022/01/10 08:28:48;;;;;;;76.40;33.70;;;;;;;-2.57;64.26;98929.69;106098;1274;97967;-74
2022/01/10 08:31:16;;;;;;;80.30;37.60;;;;;;;-2.55;64.32;98930.17;106040;1274;95562;-74
2022/01/10 08:33:45;;;;;;;83.90;36.70;;;;;;;-2.52;64.43;98935.65;106007;1274;111422;-72
2022/01/10 08:36:17;;;;;;;83.20;36.70;;;;;;;-2.49;64.41;98941.33;106102;1274;97876;-72
2022/01/10 08:38:48;;;;;;;72.80;33.90;;;;;;;-2.48;64.34;98939.91;106102;1274;106357;-74
2022/01/10 08:41:16;;;;;;;74.10;33.60;;;;;;;-2.46;64.35;98946.83;106159;1274;95280;-74
2022/01/10 08:43:44;;;;;;;75.20;31.60;;;;;;;-2.47;64.29;98957.98;106275;1274;97873;-75
2022/01/10 08:46:12;;;;;;;73.50;33.70;;;;;;;-2.51;64.11;98957.52;106163;1274;110213;-70
2022/01/10 08:48:50;;;;;;;74.60;34.50;;;;;;;-2.50;64.42;98960.45;106109;1274;97882;-74
2022/01/10 08:51:23;;;;;;;76.40;33.90;;;;;;;-2.49;64.44;98964.08;106050;1274;107693;-73
2022/01/10 08:53:55;;;;;;;76.30;37.40;;;;;;;-2.47;64.46;98967.33;106066;1274;97953;-75
2022/01/10 08:56:28;;;;;;;70.20;32.90;;;;;;;-2.46;64.53;98969.39;106076;1274;97886;-74
2022/01/10 08:58:56;;;;;;;75.90;34.50;;;;;;;-2.43;64.67;98977.31;106070;1274;112341;-73
2022/01/10 09:01:23;;;;;;;74.50;35.50;;;;;;;-2.39;64.69;98976.73;106210;1274;97892;-72
2022/01/10 09:03:51;;;;;;;77.80;36.40;;;;;;;-2.36;64.66;98979.60;106046;1274;107616;-72
2022/01/10 09:06:23;;;;;;;81.10;36.20;;;;;;;-2.34;64.67;98978.52;106142;1274;95253;-74
2022/01/10 09:08:52;;;;;;;76.80;35.80;;;;;;;-2.32;64.53;98979.86;106060;1274;97781;-74
2022/01/10 09:11:20;;;;;;;74.50;36.20;;;;;;;-2.29;64.44;98982.94;106124;1274;111602;-73
2022/01/10 09:13:48;;;;;;;80.50;37.20;;;;;;;-2.27;64.91;98986.17;106097;1274;97882;-73
2022/01/10 09:16:16;;;;;;;81.70;37.40;;;;;;;-2.23;64.87;98986.10;106053;1274;108660;-72
2022/01/10 09:18:45;;;;;;;77.30;36.80;;;;;;;-2.20;64.74;98988.63;106001;1274;97899;-72
2022/01/10 09:21:13;;;;;;;72.80;35.10;;;;;;;-2.16;65.11;98990.45;106067;1274;98089;-73
2022/01/10 09:23:41;;;;;;;75.90;35.90;;;;;;;-2.14;64.91;98991.98;105965;1274;110315;-74
2022/01/10 09:26:09;;;;;;;73.30;36.60;;;;;;;-2.10;64.67;98994.67;106132;1274;97859;-73
2022/01/10 09:28:36;;;;;;;84.00;38.30;;;;;;;-2.05;64.79;98997.70;106074;1274;107724;-74
2022/01/10 09:31:04;;;;;;;80.50;38.00;;;;;;;-2.02;64.88;99001.09;106206;1274;98008;-72
2022/01/10 09:33:32;;;;;;;77.40;37.10;;;;;;;-1.99;64.78;98997.38;106056;1273;97967;-74
2022/01/10 09:36:03;;;;;;;74.70;34.90;;;;;;;-1.96;65.02;98997.31;107114;1274;111304;-73
2022/01/10 09:38:30;;;;;;;74.10;32.00;;;;;;;-1.92;65.12;99000.89;108021;1274;95952;-74
2022/01/10 09:40:59;;;;;;;68.10;30.80;;;;;;;-1.89;65.25;99002.20;108005;1273;107767;-75
2022/01/10 09:43:27;;;;;;;59.50;28.20;;;;;;;-1.86;64.77;99005.61;107864;1273;97860;-74
2022/01/10 09:45:56;;;;;;;64.40;30.90;;;;;;;-1.82;65.04;99006.20;107308;1273;97109;-73
2022/01/10 09:48:26;;;;;;;64.40;30.30;;;;;;;-1.76;64.95;99011.30;106080;1274;111431;-74
2022/01/10 09:51:14;;;;;;;63.50;30.00;;;;;;;-1.71;64.74;99010.99;106150;1274;97881;-73
2022/01/10 09:53:45;;;;;;;66.00;30.70;;;;;;;-1.69;65.08;99013.39;106184;1274;107910;-74
2022/01/10 09:56:13;;;;;;;60.40;31.10;;;;;;;-1.70;64.77;99017.76;106185;1274;98537;-73
2022/01/10 09:58:53;;;;;;;63.50;32.30;;;;;;;-1.67;64.79;99021.70;106204;1274;95269;-73
2022/01/10 10:01:34;;;;;;;65.70;31.10;;;;;;;-1.64;65.11;99022.67;106243;1274;111374;-72
2022/01/10 10:04:02;;;;;;;68.40;33.20;;;;;;;-1.61;65.24;99025.71;106266;1274;97906;-75
2022/01/10 10:06:35;;;;;;;67.30;33.70;;;;;;;-1.56;65.01;99028.39;106077;1274;107801;-74
2022/01/10 10:09:09;;;;;;;71.90;36.70;;;;;;;-1.54;65.16;99026.23;106231;1274;96377;-74
2022/01/10 10:11:53;;;;;;;84.30;41.30;;;;;;;-1.51;65.39;99028.27;106057;1274;97862;-75
2022/01/10 10:14:25;;;;;;;78.80;37.30;;;;;;;-1.50;64.99;99030.34;106125;1274;111468;-75
2022/01/10 10:17:06;;;;;;;72.70;37.60;;;;;;;-1.48;64.97;99028.38;106226;1274;97832;-75
2022/01/10 10:19:37;;;;;;;74.90;36.70;;;;;;;-1.45;65.34;99039.27;106038;1274;106701;-75
2022/01/10 10:22:05;;;;;;;73.00;39.90;;;;;;;-1.42;65.11;99041.43;106099;1274;97955;-75
2022/01/10 10:24:33;;;;;;;74.00;36.60;;;;;;;-1.38;65.23;99040.13;106121;1274;97976;-74
2022/01/10 10:27:01;;;;;;;72.40;36.50;;;;;;;-1.36;65.44;99037.80;106099;1274;111530;-73
2022/01/10 10:29:29;;;;;;;76.50;38.30;;;;;;;-1.32;65.66;99041.73;106107;1274;96432;-74
2022/01/10 10:32:02;;;;;;;76.10;36.10;;;;;;;-1.30;65.27;99043.79;106087;1273;107849;-74
2022/01/10 10:34:35;;;;;;;75.10;35.50;;;;;;;-1.29;65.58;99049.49;106084;1274;97983;-74
2022/01/10 10:37:07;;;;;;;74.60;37.90;;;;;;;-1.28;65.56;99052.23;106098;1274;97953;-75
2022/01/10 10:39:38;;;;;;;77.60;40.00;;;;;;;-1.26;65.58;99056.89;106096;1274;110555;-72
2022/01/10 10:42:17;;;;;;;83.30;39.80;;;;;;;-1.24;65.51;99055.27;106106;1274;97982;-74
2022/01/10 10:44:45;;;;;;;88.30;41.90;;;;;;;-1.21;65.44;99056.07;106067;1274;107697;-77
2022/01/10 10:47:17;;;;;;;76.60;37.80;;;;;;;-1.19;65.56;99059.67;106123;1274;96321;-72
2022/01/10 10:49:51;;;;;;;76.50;39.00;;;;;;;-1.17;65.57;99058.23;106107;1274;97877;-75
2022/01/10 10:52:19;;;;;;;73.60;36.50;;;;;;;-1.17;65.53;99058.05;106117;1274;109406;-73
2022/01/10 10:54:47;;;;;;;74.60;35.60;;;;;;;-1.16;65.69;99062.56;106115;1274;97947;-75
2022/01/10 10:57:17;;;;;;;72.20;36.50;;;;;;;-1.14;65.64;99071.21;106318;1272;107844;-74
2022/01/10 10:59:47;;;;;;;71.40;34.50;;;;;;;-1.13;65.70;99069.45;106013;1274;97848;-74
2022/01/10 11:02:15;;;;;;;71.20;36.00;;;;;;;-1.14;65.46;99077.83;106348;1274;96077;-75
2022/01/10 11:04:46;;;;;;;70.70;34.20;;;;;;;-1.13;65.58;99082.33;106946;1274;112340;-75
2022/01/10 11:07:16;;;;;;;71.40;35.20;;;;;;;-1.10;65.67;99086.61;106215;1274;97901;-75
2022/01/10 11:10:08;;;;;;;73.60;34.40;;;;;;;-1.08;65.69;99089.16;106198;1274;107803;-74
2022/01/10 11:12:41;;;;;;;70.70;35.20;;;;;;;-1.06;65.62;99092.05;106111;1274;97922;-75
2022/01/10 11:15:15;;;;;;;74.50;36.40;;;;;;;-1.05;65.45;99101.63;106205;1274;95277;-75
2022/01/10 11:17:43;;;;;;;65.40;34.20;;;;;;;-1.04;65.66;99102.83;106189;1274;111604;-77
2022/01/10 11:20:18;;;;;;;69.90;32.00;;;;;;;-1.03;65.55;99104.20;106226;1274;99184;-76
2022/01/10 11:22:54;;;;;;;58.50;26.30;;;;;;;-1.04;65.76;99107.70;106159;1274;107345;-77
2022/01/10 11:25:33;;;;;;;50.50;23.10;;;;;;;-1.07;65.58;99107.95;106217;1274;97998;-76
2022/01/10 11:28:25;;;;;;;40.40;19.80;;;;;;;-1.13;65.70;99109.13;106219;1273;97848;-75
2022/01/10 11:31:02;;;;;;;45.60;20.60;;;;;;;-1.18;65.62;99112.73;106198;1274;111520;-75